Friday, July 20, 2018, 12:31 PM EDT
Back to Local

KBGM, Binghamton Regional Airport

Location: Johnson City, NY, United States Lat: 42.2
Local Time: 12:31 PM EDT (16:31 GMT) Lon: -75.983
Time Zone: US/Eastern Elev: 1637 ft

Show me the last for .
Show Decoded

2018-07-20 11:53 METAR KBGM 201553Z 21008KT 10SM SCT042 23/14 A3016 RMK AO2 SLP204 T02330139 =
2018-07-20 10:53 METAR KBGM 201453Z VRB06KT 10SM CLR 23/13 A3017 RMK AO2 SLP209 T02280133 51002 =
2018-07-20 09:53 METAR KBGM 201353Z VRB03KT 10SM CLR 21/14 A3017 RMK AO2 SLP209 T02110139 =
2018-07-20 08:53 METAR KBGM 201253Z VRB03KT 10SM CLR 19/13 A3017 RMK AO2 SLP210 T01890128 =
2018-07-20 07:53 METAR KBGM 201153Z 14006KT 10SM CLR 16/11 A3017 RMK AO2 SLP208 T01610111 10161
                 20117 52009 =
2018-07-20 06:53 METAR KBGM 201053Z 15003KT 10SM CLR 14/10 A3016 RMK AO2 SLP206 T01440100 =
2018-07-20 05:53 METAR KBGM 200953Z AUTO 14004KT 10SM CLR 12/10 A3015 RMK AO2 SLP203 T01170100 =
2018-07-20 04:53 METAR KBGM 200853Z AUTO 15005KT 10SM CLR 13/09 A3014 RMK AO2 SLP199 T01330094
                 53001 =
2018-07-20 03:53 METAR KBGM 200753Z AUTO 15004KT 10SM CLR 14/10 A3014 RMK AO2 SLP198 T01390100 =
2018-07-20 02:53 METAR KBGM 200653Z AUTO 14004KT 10SM CLR 15/10 A3014 RMK AO2 SLP199 T01500100 =
2018-07-20 01:53 METAR KBGM 200553Z AUTO 15004KT 10SM CLR 15/11 A3014 RMK AO2 SLP199 T01500106
                 10222 20150 53001 =
2018-07-20 00:53 METAR KBGM 200453Z AUTO 15004KT 10SM CLR 16/11 A3014 RMK AO2 SLP198 T01610106
                 402390106 =
2018-07-19 23:53 METAR KBGM 200353Z AUTO 16005KT 10SM CLR 18/10 A3013 RMK AO2 SLP195 T01830100 =
2018-07-19 22:53 METAR KBGM 200253Z 13004KT 10SM CLR 18/09 A3013 RMK AO2 SLP197 T01780089 51005 =
2018-07-19 21:53 METAR KBGM 200153Z 08003KT 10SM CLR 20/08 A3013 RMK AO2 SLP197 T02000078 =
2018-07-19 20:53 METAR KBGM 200053Z 05003KT 10SM CLR 21/09 A3012 RMK AO2 SLP194 T02060094 =
2018-07-19 19:53 METAR KBGM 192353Z 30004KT 10SM CLR 22/09 A3012 RMK AO2 SLP192 T02220094 10239
                 20217 56001 =
2018-07-19 18:53 METAR KBGM 192253Z 28006KT 10SM CLR 23/10 A3012 RMK AO2 SLP194 T02330100 =
2018-07-19 17:53 METAR KBGM 192153Z 25005KT 10SM CLR 23/09 A3011 RMK AO2 SLP190 T02330094 =
2018-07-19 16:53 METAR KBGM 192053Z VRB03KT 10SM CLR 24/06 A3012 RMK AO2 SLP194 T02390061 56009 =
2018-07-19 15:53 METAR KBGM 191953Z VRB03KT 10SM CLR 24/06 A3012 RMK AO2 SLP195 T02390061 =
2018-07-19 14:53 METAR KBGM 191853Z 00000KT 10SM CLR 22/07 A3014 RMK AO2 SLP201 T02220067 =
2018-07-19 13:53 METAR KBGM 191753Z 00000KT 10SM CLR 22/06 A3015 RMK AO2 SLP204 T02170056 10217
                 20139 57004 =
2018-07-19 12:53 METAR KBGM 191653Z 00000KT 10SM CLR 21/08 A3015 RMK AO2 SLP206 T02110078 =

Support USWX by starting your Amazon purchase here.